Terminal Aerodrome Forecast
Issued by NWS

Home | Current Version | Previous Version | Text Only | Print | Product List | Glossary On
Versions: 1 2 3 4 5 6 7 8 9 10 11 12 13 14 15 16 17
256
FTUS43 KMQT 271739
TAFCMX
TAF
KCMX 271739Z 2718/2818 33006KT P6SM OVC004
     FM271900 33006KT P6SM BKN008
     FM272000 33005KT P6SM BKN012
     FM272300 33004KT P6SM SCT015
     FM280800 35003KT P6SM SCT020
     FM281000 36003KT 3SM BR BKN015
     FM281300 36003KT P6SM BKN015=

USA.gov is the U.S. government's official web portal to all federal, state and local government web resources and services.